Wetterdaten: Woche 01.11.21 - 07.11.21 (KW44)
Datum Zeit Temp. Aussen Temp. o. S. Temp +5cm Feuchte Auss Luftdruck Regen Sonnenschein Regendauer Solar Windben Empfang
01.11.2021 00:00 10,3 C 9,5 C 8,9 C 94 % 1000,0 hPa 0,0 l/m 0,00 h 0,00 h 0 W/m 12,3 km/h (3 Bft) 97,86 %
01.11.2021 01:00 9,7 C 8,9 C 8,4 C 93 % 1000,0 hPa 0,0 l/m 0,00 h 0,00 h 0 W/m 7,4 km/h (2 Bft) 96,94 %
01.11.2021 02:00 9,2 C 8,2 C 7,9 C 93 % 999,8 hPa 0,0 l/m 0,00 h 0,00 h 0 W/m 6,2 km/h (2 Bft) 97,33 %
01.11.2021 03:00 8,9 C 8,3 C 7,8 C 94 % 999,6 hPa 0,0 l/m 0,00 h 0,00 h 0 W/m 8,6 km/h (2 Bft) 99,08 %
01.11.2021 04:00 8,8 C 8,0 C 7,8 C 93 % 999,4 hPa 0,0 l/m 0,00 h 0,00 h 0 W/m 8,3 km/h (2 Bft) 93,97 %
01.11.2021 05:00 8,9 C 8,3 C 7,8 C 93 % 999,6 hPa 0,0 l/m 0,00 h 0,00 h 0 W/m 11,8 km/h (2 Bft) 99,22 %
01.11.2021 06:00 9,0 C 8,3 C 7,7 C 91 % 999,5 hPa 0,0 l/m 0,00 h 0,00 h 0 W/m 14,4 km/h (3 Bft) 97,02 %
01.11.2021 07:00 8,9 C 8,0 C 7,3 C 90 % 999,7 hPa 0,0 l/m 0,00 h 0,00 h 8 W/m 12,7 km/h (3 Bft) 97,22 %
01.11.2021 08:00 8,9 C 8,3 C 7,7 C 90 % 1000,5 hPa 0,0 l/m 0,00 h 0,00 h 27 W/m 10,9 km/h (2 Bft) 96,72 %
01.11.2021 09:00 10,0 C 9,9 C 9,0 C 88 % 1000,9 hPa 0,0 l/m 0,10 h 0,00 h 88 W/m 17,9 km/h (3 Bft) 98,87 %
01.11.2021 10:00 11,3 C 13,1 C 10,3 C 83 % 1000,9 hPa 0,0 l/m 0,50 h 0,00 h 195 W/m 29,3 km/h (5 Bft) 97,29 %
01.11.2021 11:00 12,0 C 12,1 C 10,4 C 78 % 1000,6 hPa 0,0 l/m 0,00 h 0,00 h 66 W/m 26,3 km/h (4 Bft) 96,92 %
01.11.2021 12:00 12,7 C 12,7 C 10,7 C 74 % 1000,4 hPa 0,0 l/m 0,03 h 0,00 h 108 W/m 27,8 km/h (4 Bft) 98,43 %
01.11.2021 13:00 13,6 C 14,1 C 11,0 C 70 % 1000,2 hPa 0,0 l/m 0,77 h 0,00 h 368 W/m 34,6 km/h (5 Bft) 97,86 %
01.11.2021 14:00 13,5 C 13,5 C 10,8 C 69 % 1000,0 hPa 0,0 l/m 0,67 h 0,00 h 232 W/m 26,4 km/h (4 Bft) 96,51 %
01.11.2021 15:00 13,3 C 12,9 C 10,5 C 69 % 1000,1 hPa 0,0 l/m 0,27 h 0,00 h 104 W/m 22,7 km/h (4 Bft) 97,08 %
01.11.2021 16:00 12,8 C 12,1 C 9,9 C 72 % 1000,1 hPa 0,0 l/m 0,00 h 0,00 h 27 W/m 14,8 km/h (3 Bft) 98,42 %
01.11.2021 17:00 12,0 C 11,0 C 8,9 C 74 % 1000,3 hPa 0,0 l/m 0,00 h 0,00 h 5 W/m 9,3 km/h (2 Bft) 98,02 %
01.11.2021 18:00 10,9 C 9,8 C 8,2 C 77 % 1000,3 hPa 0,0 l/m 0,00 h 0,00 h 0 W/m 7,2 km/h (2 Bft) 96,26 %
01.11.2021 19:00 10,3 C 9,3 C 7,7 C 79 % 1000,7 hPa 0,0 l/m 0,00 h 0,00 h 0 W/m 9,0 km/h (2 Bft) 98,93 %
01.11.2021 20:00 9,8 C 8,8 C 7,2 C 82 % 1000,8 hPa 0,0 l/m 0,00 h 0,00 h 0 W/m 6,8 km/h (2 Bft) 97,51 %
01.11.2021 21:00 9,0 C 8,0 C 6,7 C 85 % 1000,7 hPa 0,0 l/m 0,00 h 0,00 h 0 W/m 5,1 km/h (1 Bft) 97,51 %
01.11.2021 22:00 8,5 C 7,4 C 6,2 C 87 % 1000,5 hPa 0,0 l/m 0,00 h 0,10 h 0 W/m 3,5 km/h (1 Bft) 96,72 %
01.11.2021 23:00 8,1 C 7,0 C 5,9 C 89 % 1000,4 hPa 0,0 l/m 0,00 h 0,00 h 0 W/m 2,5 km/h (1 Bft) 98,72 %
02.11.2021 00:00 7,5 C 6,4 C 5,4 C 91 % 1000,2 hPa 0,0 l/m 0,00 h 0,00 h 0 W/m 2,6 km/h (1 Bft) 96,79 %
02.11.2021 01:00 6,7 C 5,8 C 5,0 C 92 % 1000,3 hPa 0,0 l/m 0,00 h 0,00 h 0 W/m 3,2 km/h (1 Bft) 95,72 %
02.11.2021 02:00 6,3 C 5,2 C 4,6 C 93 % 1000,2 hPa 0,0 l/m 0,00 h 0,00 h 0 W/m 2,1 km/h (1 Bft) 96,78 %
02.11.2021 03:00 6,0 C 5,2 C 4,5 C 93 % 1000,2 hPa 0,0 l/m 0,00 h 0,00 h 0 W/m 4,2 km/h (1 Bft) 98,43 %
02.11.2021 04:00 5,7 C 4,9 C 4,5 C 94 % 1000,0 hPa 0,2 l/m 0,00 h 0,00 h 0 W/m 3,6 km/h (1 Bft) 95,66 %
02.11.2021 05:00 5,3 C 4,5 C 4,1 C 94 % 1000,1 hPa 0,0 l/m 0,00 h 0,00 h 0 W/m 4,3 km/h (1 Bft) 96,24 %
02.11.2021 06:00 4,9 C 4,4 C 3,9 C 95 % 999,9 hPa 0,0 l/m 0,00 h 0,00 h 0 W/m 4,6 km/h (1 Bft) 97,93 %
02.11.2021 07:00 4,9 C 4,4 C 3,9 C 95 % 999,9 hPa 0,0 l/m 0,00 h 0,00 h 8 W/m 4,3 km/h (1 Bft) 98,29 %
02.11.2021 08:00 5,0 C 4,8 C 4,4 C 95 % 1000,2 hPa 0,0 l/m 0,00 h 0,00 h 36 W/m 4,8 km/h (1 Bft) 95,08 %
02.11.2021 09:00 6,1 C 6,2 C 5,3 C 96 % 1000,3 hPa 0,2 l/m 0,00 h 0,17 h 59 W/m 5,3 km/h (1 Bft) 98,15 %
02.11.2021 10:00 7,1 C 7,4 C 6,4 C 96 % 1000,4 hPa 0,0 l/m 0,00 h 0,03 h 87 W/m 6,6 km/h (2 Bft) 95,49 %
02.11.2021 11:00 8,2 C 8,3 C 7,4 C 95 % 1000,4 hPa 0,0 l/m 0,00 h 0,17 h 115 W/m 7,6 km/h (2 Bft) 94,21 %
02.11.2021 12:00 8,9 C 8,9 C 7,8 C 94 % 1000,3 hPa 0,0 l/m 0,00 h 0,03 h 134 W/m 9,8 km/h (2 Bft) 98,16 %
02.11.2021 13:00 9,5 C 10,1 C 8,7 C 93 % 999,8 hPa 0,0 l/m 0,30 h 0,03 h 193 W/m 10,2 km/h (2 Bft) 96,51 %
02.11.2021 14:00 10,0 C 10,1 C 8,9 C 90 % 999,5 hPa 0,0 l/m 0,23 h 0,00 h 145 W/m 13,9 km/h (3 Bft) 96,51 %
02.11.2021 15:00 9,9 C 9,0 C 8,2 C 91 % 999,5 hPa 0,4 l/m 0,07 h 0,33 h 45 W/m 14,8 km/h (3 Bft) 99,29 %
02.11.2021 16:00 9,0 C 8,3 C 7,3 C 92 % 999,9 hPa 0,0 l/m 0,30 h 0,03 h 31 W/m 11,8 km/h (2 Bft) 94,65 %
02.11.2021 17:00 8,6 C 7,6 C 6,9 C 93 % 1000,3 hPa 0,0 l/m 0,00 h 0,00 h 0 W/m 4,7 km/h (1 Bft) 99,01 %
02.11.2021 18:00 7,9 C 6,7 C 6,1 C 93 % 1000,6 hPa 0,0 l/m 0,00 h 0,00 h 0 W/m 0,8 km/h (0 Bft) 97,50 %
02.11.2021 19:00 7,5 C 6,7 C 6,1 C 94 % 1001,3 hPa 0,0 l/m 0,00 h 0,00 h 0 W/m 4,6 km/h (1 Bft) 95,46 %
02.11.2021 20:00 7,1 C 6,1 C 5,9 C 95 % 1001,7 hPa 0,0 l/m 0,00 h 0,00 h 0 W/m 3,9 km/h (1 Bft) 97,24 %
02.11.2021 21:00 6,4 C 5,4 C 5,1 C 95 % 1002,0 hPa 0,0 l/m 0,00 h 0,00 h 0 W/m 1,3 km/h (1 Bft) 97,77 %
02.11.2021 22:00 5,6 C 4,6 C 4,3 C 95 % 1002,0 hPa 0,2 l/m 0,00 h 0,00 h 0 W/m 1,6 km/h (1 Bft) 97,21 %
02.11.2021 23:00 5,1 C 4,1 C 4,1 C 95 % 1001,8 hPa 0,0 l/m 0,00 h 0,00 h 0 W/m 2,8 km/h (1 Bft) 93,95 %
03.11.2021 00:00 4,3 C 3,3 C 3,6 C 95 % 1001,7 hPa 0,0 l/m 0,00 h 0,00 h 0 W/m 1,2 km/h (1 Bft) 98,09 %
03.11.2021 01:00 3,9 C 3,3 C 3,6 C 95 % 1001,7 hPa 0,0 l/m 0,00 h 0,00 h 0 W/m 2,8 km/h (1 Bft) 97,15 %
03.11.2021 02:00 3,9 C 3,3 C 3,9 C 96 % 1001,5 hPa 0,0 l/m 0,00 h 0,00 h 0 W/m 5,2 km/h (1 Bft) 97,58 %
03.11.2021 03:00 3,8 C 3,2 C 3,7 C 96 % 1000,9 hPa 0,0 l/m 0,00 h 0,00 h 0 W/m 2,1 km/h (1 Bft) 96,94 %
03.11.2021 04:00 3,9 C 3,4 C 3,8 C 96 % 1000,9 hPa 0,0 l/m 0,00 h 0,00 h 0 W/m 1,6 km/h (1 Bft) 98,05 %
03.11.2021 05:00 4,5 C 3,9 C 4,5 C 96 % 1001,3 hPa 0,0 l/m 0,00 h 0,00 h 0 W/m 4,9 km/h (1 Bft) 99,07 %
03.11.2021 06:00 4,5 C 3,9 C 4,5 C 97 % 1001,2 hPa 0,0 l/m 0,00 h 0,00 h 0 W/m 1,7 km/h (1 Bft) 94,96 %
03.11.2021 07:00 4,5 C 3,9 C 4,5 C 97 % 1001,0 hPa 0,2 l/m 0,00 h 0,00 h 4 W/m 0,6 km/h (0 Bft) 99,66 %
03.11.2021 08:00 4,7 C 4,3 C 4,7 C 97 % 1000,9 hPa 0,0 l/m 0,00 h 0,00 h 17 W/m 0,4 km/h (0 Bft) 97,08 %
03.11.2021 09:00 5,3 C 5,2 C 5,4 C 97 % 1001,2 hPa 0,0 l/m 0,00 h 0,00 h 41 W/m 2,5 km/h (1 Bft) 96,80 %
03.11.2021 10:00 5,9 C 5,9 C 6,2 C 97 % 1001,3 hPa 0,0 l/m 0,00 h 0,00 h 59 W/m 3,1 km/h (1 Bft) 97,11 %
03.11.2021 11:00 6,6 C 6,7 C 6,7 C 97 % 1001,0 hPa 0,0 l/m 0,00 h 0,00 h 57 W/m 5,0 km/h (1 Bft) 97,79 %
03.11.2021 12:00 7,0 C 6,7 C 6,7 C 97 % 1001,0 hPa 0,2 l/m 0,00 h 0,75 h 50 W/m 2,6 km/h (1 Bft) 96,48 %
03.11.2021 13:00 7,1 C 6,7 C 6,7 C 97 % 1001,0 hPa 1,0 l/m 0,00 h 0,82 h 36 W/m 2,7 km/h (1 Bft) 97,17 %
03.11.2021 14:00 7,3 C 6,7 C 6,9 C 97 % 1001,0 hPa 1,2 l/m 0,00 h 0,97 h 41 W/m 3,0 km/h (1 Bft) 98,44 %
03.11.2021 15:00 7,3 C 6,7 C 6,9 C 97 % 1001,2 hPa 0,4 l/m 0,00 h 0,40 h 44 W/m 5,9 km/h (2 Bft) 96,84 %
03.11.2021 16:00 7,0 C 6,4 C 6,7 C 97 % 1001,2 hPa 0,0 l/m 0,00 h 0,00 h 11 W/m 4,1 km/h (1 Bft) 97,81 %
03.11.2021 17:00 6,8 C 6,1 C 6,7 C 97 % 1001,5 hPa 0,0 l/m 0,00 h 0,00 h 0 W/m 4,7 km/h (1 Bft) 98,15 %
03.11.2021 18:00 6,8 C 6,1 C 6,6 C 97 % 1001,8 hPa 0,0 l/m 0,00 h 0,00 h 0 W/m 7,2 km/h (2 Bft) 95,73 %
03.11.2021 19:00 6,7 C 6,1 C 6,6 C 97 % 1002,3 hPa 0,0 l/m 0,00 h 0,00 h 0 W/m 8,9 km/h (2 Bft) 98,43 %
03.11.2021 20:00 6,7 C 6,1 C 6,7 C 97 % 1002,6 hPa 0,0 l/m 0,00 h 0,00 h 0 W/m 8,7 km/h (2 Bft) 98,66 %
03.11.2021 21:00 6,7 C 6,1 C 6,7 C 97 % 1002,7 hPa 0,0 l/m 0,00 h 0,00 h 0 W/m 8,5 km/h (2 Bft) 95,52 %
03.11.2021 22:00 6,7 C 6,1 C 6,7 C 97 % 1003,2 hPa 0,0 l/m 0,00 h 0,00 h 0 W/m 9,6 km/h (2 Bft) 97,99 %
03.11.2021 23:00 6,6 C 6,1 C 6,7 C 98 % 1003,6 hPa 0,0 l/m 0,00 h 0,00 h 0 W/m 7,7 km/h (2 Bft) 95,57 %
04.11.2021 00:00 6,4 C 6,1 C 6,7 C 98 % 1003,6 hPa 0,0 l/m 0,00 h 0,00 h 0 W/m 11,1 km/h (2 Bft) 96,05 %
04.11.2021 01:00 6,2 C 5,6 C 6,5 C 98 % 1003,5 hPa 0,0 l/m 0,00 h 0,00 h 0 W/m 10,6 km/h (2 Bft) 97,51 %
04.11.2021 02:00 5,9 C 5,6 C 6,1 C 98 % 1003,5 hPa 0,0 l/m 0,00 h 0,00 h 0 W/m 9,3 km/h (2 Bft) 98,58 %
04.11.2021 03:00 5,6 C 5,0 C 6,1 C 98 % 1003,6 hPa 0,0 l/m 0,00 h 0,00 h 0 W/m 9,0 km/h (2 Bft) 97,08 %
04.11.2021 04:00 5,4 C 5,0 C 5,9 C 98 % 1003,9 hPa 0,0 l/m 0,00 h 0,00 h 0 W/m 7,8 km/h (2 Bft) 97,03 %
04.11.2021 05:00 5,3 C 5,0 C 6,0 C 98 % 1004,1 hPa 0,0 l/m 0,00 h 0,00 h 0 W/m 6,1 km/h (2 Bft) 99,15 %
04.11.2021 06:00 5,4 C 5,0 C 6,1 C 98 % 1004,7 hPa 0,0 l/m 0,00 h 0,00 h 0 W/m 4,6 km/h (1 Bft) 94,62 %
04.11.2021 07:00 5,5 C 5,0 C 6,1 C 98 % 1004,9 hPa 0,0 l/m 0,00 h 0,00 h 0 W/m 5,6 km/h (1 Bft) 97,64 %
04.11.2021 08:00 5,3 C 5,0 C 6,1 C 98 % 1005,1 hPa 0,0 l/m 0,00 h 0,00 h 17 W/m 5,9 km/h (2 Bft) 98,72 %
04.11.2021 09:00 5,6 C 5,4 C 6,4 C 98 % 1005,8 hPa 0,0 l/m 0,00 h 0,00 h 36 W/m 5,0 km/h (1 Bft) 96,80 %
04.11.2021 10:00 6,0 C 6,2 C 7,0 C 98 % 1006,3 hPa 0,0 l/m 0,00 h 0,03 h 81 W/m 5,2 km/h (1 Bft) 97,26 %
04.11.2021 11:00 6,6 C 6,5 C 7,3 C 98 % 1006,9 hPa 0,2 l/m 0,00 h 0,37 h 62 W/m 5,1 km/h (1 Bft) 97,37 %
04.11.2021 12:00 7,4 C 8,0 C 8,0 C 98 % 1006,7 hPa 0,0 l/m 0,13 h 0,00 h 147 W/m 6,3 km/h (2 Bft) 95,61 %
04.11.2021 13:00 8,2 C 8,2 C 8,4 C 98 % 1006,9 hPa 0,0 l/m 0,00 h 0,00 h 93 W/m 8,7 km/h (2 Bft) 98,64 %
04.11.2021 14:00 8,3 C 8,1 C 8,4 C 96 % 1007,5 hPa 0,0 l/m 0,00 h 0,00 h 77 W/m 9,9 km/h (2 Bft) 96,96 %
04.11.2021 15:00 8,4 C 8,0 C 8,6 C 95 % 1008,1 hPa 0,0 l/m 0,00 h 0,00 h 36 W/m 7,1 km/h (2 Bft) 97,55 %
04.11.2021 16:00 8,6 C 8,0 C 8,5 C 93 % 1008,6 hPa 0,0 l/m 0,10 h 0,00 h 26 W/m 7,1 km/h (2 Bft) 97,51 %
04.11.2021 17:00 8,0 C 7,2 C 7,5 C 94 % 1009,3 hPa 0,0 l/m 0,00 h 0,00 h 4 W/m 3,1 km/h (1 Bft) 97,92 %
04.11.2021 18:00 7,8 C 7,0 C 7,3 C 95 % 1010,3 hPa 0,0 l/m 0,00 h 0,00 h 0 W/m 0,2 km/h (0 Bft) 97,44 %
04.11.2021 19:00 7,5 C 6,8 C 7,2 C 95 % 1011,1 hPa 0,0 l/m 0,00 h 0,00 h 0 W/m 2,0 km/h (1 Bft) 96,97 %
04.11.2021 20:00 7,0 C 5,8 C 6,4 C 95 % 1011,7 hPa 0,0 l/m 0,00 h 0,00 h 0 W/m 0,4 km/h (0 Bft) 98,24 %
04.11.2021 21:00 5,9 C 4,7 C 5,5 C 95 % 1012,4 hPa 0,0 l/m 0,00 h 0,00 h 0 W/m 0,4 km/h (0 Bft) 97,95 %
04.11.2021 22:00 6,4 C 6,0 C 6,5 C 96 % 1013,2 hPa 0,2 l/m 0,00 h 0,00 h 0 W/m 3,3 km/h (1 Bft) 96,59 %
04.11.2021 23:00 6,6 C 6,0 C 6,6 C 97 % 1013,9 hPa 0,0 l/m 0,00 h 0,00 h 0 W/m 2,2 km/h (1 Bft) 96,21 %
05.11.2021 00:00 6,4 C 5,9 C 6,5 C 97 % 1014,5 hPa 0,0 l/m 0,00 h 0,00 h 0 W/m 2,8 km/h (1 Bft) 98,07 %
05.11.2021 01:00 6,9 C 6,6 C 7,2 C 97 % 1015,2 hPa 0,0 l/m 0,00 h 0,00 h 0 W/m 5,4 km/h (1 Bft) 94,78 %
05.11.2021 02:00 6,8 C 6,1 C 7,3 C 97 % 1016,0 hPa 0,0 l/m 0,00 h 0,00 h 0 W/m 5,2 km/h (1 Bft) 96,43 %
05.11.2021 03:00 6,5 C 5,9 C 6,8 C 98 % 1016,6 hPa 0,0 l/m 0,00 h 0,00 h 0 W/m 6,9 km/h (2 Bft) 98,08 %
05.11.2021 04:00 6,2 C 5,6 C 6,7 C 98 % 1017,4 hPa 0,0 l/m 0,00 h 0,00 h 0 W/m 4,6 km/h (1 Bft) 95,35 %
05.11.2021 05:00 6,2 C 5,6 C 6,7 C 98 % 1018,3 hPa 0,0 l/m 0,00 h 0,00 h 0 W/m 4,4 km/h (1 Bft) 96,38 %
05.11.2021 06:00 6,1 C 5,6 C 6,7 C 98 % 1019,3 hPa 0,0 l/m 0,00 h 0,00 h 0 W/m 4,4 km/h (1 Bft) 97,70 %
05.11.2021 07:00 6,2 C 5,9 C 7,1 C 98 % 1020,1 hPa 0,0 l/m 0,00 h 0,00 h 5 W/m 3,9 km/h (1 Bft) 95,80 %
05.11.2021 08:00 6,3 C 6,1 C 7,3 C 98 % 1021,1 hPa 0,0 l/m 0,00 h 0,00 h 27 W/m 4,9 km/h (1 Bft) 96,41 %
05.11.2021 09:00 6,6 C 7,0 C 7,6 C 98 % 1021,9 hPa 0,0 l/m 0,23 h 0,00 h 89 W/m 5,9 km/h (2 Bft) 99,09 %
05.11.2021 10:00 7,9 C 12,1 C 8,7 C 98 % 1022,6 hPa 0,0 l/m 0,70 h 0,00 h 203 W/m 6,5 km/h (2 Bft) 95,59 %
05.11.2021 11:00 9,5 C 10,1 C 9,9 C 94 % 1023,3 hPa 0,0 l/m 0,10 h 0,00 h 124 W/m 7,1 km/h (2 Bft) 97,72 %
05.11.2021 12:00 10,5 C 10,9 C 10,5 C 90 % 1023,5 hPa 0,0 l/m 0,17 h 0,00 h 147 W/m 9,8 km/h (2 Bft) 98,01 %
05.11.2021 13:00 11,1 C 11,3 C 10,7 C 88 % 1023,8 hPa 0,0 l/m 0,13 h 0,00 h 168 W/m 9,0 km/h (2 Bft) 95,32 %
05.11.2021 14:00 11,4 C 11,5 C 10,6 C 88 % 1024,1 hPa 0,0 l/m 0,13 h 0,00 h 118 W/m 8,9 km/h (2 Bft) 98,71 %
05.11.2021 15:00 11,3 C 10,8 C 10,2 C 87 % 1024,5 hPa 0,0 l/m 0,00 h 0,00 h 45 W/m 7,4 km/h (2 Bft) 97,19 %
05.11.2021 16:00 11,0 C 10,4 C 9,6 C 89 % 1024,9 hPa 0,0 l/m 0,00 h 0,00 h 24 W/m 4,9 km/h (1 Bft) 97,31 %
05.11.2021 17:00 10,5 C 9,6 C 9,0 C 90 % 1025,7 hPa 0,0 l/m 0,00 h 0,00 h 0 W/m 2,3 km/h (1 Bft) 96,48 %
05.11.2021 18:00 9,5 C 8,3 C 7,8 C 93 % 1026,4 hPa 0,0 l/m 0,00 h 0,00 h 0 W/m 2,3 km/h (1 Bft) 97,93 %
05.11.2021 19:00 8,4 C 6,9 C 6,3 C 93 % 1027,0 hPa 0,0 l/m 0,00 h 0,00 h 0 W/m 1,0 km/h (0 Bft) 96,71 %
05.11.2021 20:00 7,9 C 7,0 C 6,7 C 95 % 1027,5 hPa 0,0 l/m 0,00 h 0,00 h 0 W/m 3,2 km/h (1 Bft) 99,15 %
05.11.2021 21:00 7,5 C 6,7 C 6,7 C 96 % 1028,0 hPa 0,0 l/m 0,00 h 0,00 h 0 W/m 3,6 km/h (1 Bft) 97,01 %
05.11.2021 22:00 7,3 C 6,6 C 6,7 C 96 % 1028,5 hPa 0,0 l/m 0,00 h 0,00 h 0 W/m 3,4 km/h (1 Bft) 94,78 %
05.11.2021 23:00 6,9 C 6,2 C 6,4 C 96 % 1028,7 hPa 0,0 l/m 0,00 h 0,00 h 0 W/m 3,7 km/h (1 Bft) 98,43 %
06.11.2021 00:00 6,3 C 5,6 C 5,7 C 96 % 1028,8 hPa 0,0 l/m 0,00 h 0,00 h 0 W/m 4,2 km/h (1 Bft) 98,21 %
06.11.2021 01:00 6,0 C 5,1 C 5,6 C 96 % 1028,9 hPa 0,0 l/m 0,00 h 0,00 h 0 W/m 5,8 km/h (2 Bft) 96,94 %
06.11.2021 02:00 5,5 C 4,8 C 5,2 C 96 % 1029,1 hPa 0,0 l/m 0,00 h 0,00 h 0 W/m 5,5 km/h (1 Bft) 97,36 %
06.11.2021 03:00 5,1 C 4,4 C 5,0 C 96 % 1028,9 hPa 0,0 l/m 0,00 h 0,00 h 0 W/m 6,7 km/h (2 Bft) 98,79 %
06.11.2021 04:00 4,9 C 4,2 C 4,9 C 96 % 1028,8 hPa 0,0 l/m 0,00 h 0,00 h 0 W/m 7,5 km/h (2 Bft) 96,68 %
06.11.2021 05:00 4,5 C 3,9 C 4,6 C 96 % 1028,9 hPa 0,0 l/m 0,00 h 0,00 h 0 W/m 8,6 km/h (2 Bft) 97,08 %
06.11.2021 06:00 4,6 C 4,0 C 4,6 C 95 % 1028,8 hPa 0,0 l/m 0,00 h 0,00 h 0 W/m 8,2 km/h (2 Bft) 97,97 %
06.11.2021 07:00 4,7 C 4,2 C 4,7 C 95 % 1028,9 hPa 0,0 l/m 0,00 h 0,00 h 10 W/m 10,3 km/h (2 Bft) 98,37 %
06.11.2021 08:00 5,5 C 5,4 C 5,6 C 94 % 1029,2 hPa 0,2 l/m 0,03 h 0,00 h 42 W/m 11,5 km/h (2 Bft) 96,02 %
06.11.2021 09:00 6,5 C 7,0 C 6,5 C 91 % 1029,1 hPa 0,0 l/m 0,45 h 0,00 h 124 W/m 15,3 km/h (3 Bft) 98,17 %
06.11.2021 10:00 8,1 C 10,8 C 7,3 C 87 % 1029,0 hPa 0,0 l/m 0,68 h 0,00 h 187 W/m 15,0 km/h (3 Bft) 93,89 %
06.11.2021 11:00 9,6 C 10,0 C 8,1 C 85 % 1028,8 hPa 0,0 l/m 0,43 h 0,00 h 171 W/m 17,9 km/h (3 Bft) 95,80 %
06.11.2021 12:00 10,8 C 11,2 C 8,8 C 81 % 1028,1 hPa 0,0 l/m 0,67 h 0,00 h 202 W/m 22,0 km/h (4 Bft) 98,43 %
06.11.2021 13:00 11,4 C 11,6 C 8,9 C 78 % 1027,3 hPa 0,0 l/m 0,70 h 0,00 h 197 W/m 24,0 km/h (4 Bft) 96,94 %
06.11.2021 14:00 11,3 C 11,0 C 8,5 C 79 % 1026,7 hPa 0,0 l/m 0,10 h 0,00 h 90 W/m 18,5 km/h (3 Bft) 98,29 %
06.11.2021 15:00 10,5 C 9,8 C 7,4 C 82 % 1026,0 hPa 0,0 l/m 0,00 h 0,00 h 28 W/m 20,1 km/h (4 Bft) 97,36 %
06.11.2021 16:00 10,0 C 9,4 C 7,1 C 83 % 1025,5 hPa 0,0 l/m 0,00 h 0,00 h 18 W/m 20,9 km/h (4 Bft) 97,43 %
06.11.2021 17:00 10,1 C 9,4 C 7,2 C 84 % 1025,2 hPa 0,0 l/m 0,00 h 0,00 h 0 W/m 21,5 km/h (4 Bft) 97,43 %
06.11.2021 18:00 9,9 C 9,4 C 6,7 C 86 % 1024,4 hPa 0,0 l/m 0,00 h 0,00 h 0 W/m 20,5 km/h (4 Bft) 98,25 %
06.11.2021 19:00 10,1 C 9,4 C 7,1 C 85 % 1023,6 hPa 0,0 l/m 0,00 h 0,00 h 0 W/m 23,3 km/h (4 Bft) 97,00 %
06.11.2021 20:00 9,9 C 9,2 C 6,7 C 83 % 1022,9 hPa 0,0 l/m 0,00 h 0,00 h 0 W/m 26,0 km/h (4 Bft) 96,38 %
06.11.2021 21:00 9,5 C 8,9 C 6,5 C 83 % 1022,5 hPa 0,0 l/m 0,00 h 0,00 h 0 W/m 26,1 km/h (4 Bft) 97,79 %
06.11.2021 22:00 9,6 C 8,9 C 6,7 C 83 % 1021,9 hPa 0,0 l/m 0,00 h 0,00 h 0 W/m 25,0 km/h (4 Bft) 97,42 %
06.11.2021 23:00 9,8 C 9,2 C 6,7 C 83 % 1020,8 hPa 0,0 l/m 0,00 h 0,00 h 0 W/m 29,4 km/h (5 Bft) 97,37 %
07.11.2021 00:00 10,0 C 9,4 C 6,7 C 82 % 1020,1 hPa 0,0 l/m 0,00 h 0,07 h 0 W/m 31,3 km/h (5 Bft) 98,14 %
07.11.2021 01:00 9,4 C 8,6 C 6,0 C 87 % 1019,3 hPa 0,0 l/m 0,00 h 0,60 h 0 W/m 27,2 km/h (4 Bft) 96,22 %
07.11.2021 02:00 8,9 C 8,2 C 5,6 C 93 % 1018,7 hPa 0,0 l/m 0,00 h 0,63 h 0 W/m 24,9 km/h (4 Bft) 99,50 %
07.11.2021 03:00 8,8 C 8,1 C 5,7 C 95 % 1018,1 hPa 0,0 l/m 0,00 h 0,70 h 0 W/m 22,2 km/h (4 Bft) 95,22 %
07.11.2021 04:00 8,9 C 8,3 C 6,3 C 95 % 1017,2 hPa 0,0 l/m 0,00 h 0,00 h 0 W/m 22,7 km/h (4 Bft) 97,43 %
07.11.2021 05:00 9,2 C 8,6 C 6,8 C 95 % 1016,5 hPa 0,0 l/m 0,00 h 0,00 h 0 W/m 18,3 km/h (3 Bft) 97,02 %
07.11.2021 06:00 9,5 C 8,9 C 7,2 C 95 % 1016,0 hPa 0,0 l/m 0,00 h 0,00 h 0 W/m 21,3 km/h (4 Bft) 96,94 %
07.11.2021 07:00 9,7 C 9,0 C 7,2 C 95 % 1016,1 hPa 0,2 l/m 0,00 h 0,23 h 8 W/m 17,7 km/h (3 Bft) 97,29 %
07.11.2021 08:00 9,9 C 9,4 C 7,7 C 95 % 1016,4 hPa 0,0 l/m 0,00 h 0,10 h 21 W/m 15,3 km/h (3 Bft) 99,50 %
07.11.2021 09:00 10,2 C 10,0 C 8,2 C 94 % 1016,5 hPa 0,0 l/m 0,00 h 0,00 h 77 W/m 17,1 km/h (3 Bft) 94,80 %
07.11.2021 10:00 10,6 C 10,9 C 8,5 C 90 % 1016,8 hPa 0,0 l/m 0,10 h 0,00 h 127 W/m 15,7 km/h (3 Bft) 98,21 %
07.11.2021 11:00 11,3 C 11,3 C 8,9 C 82 % 1016,9 hPa 0,0 l/m 0,13 h 0,00 h 148 W/m 17,2 km/h (3 Bft) 97,27 %
07.11.2021 12:00 11,5 C 11,8 C 8,7 C 78 % 1016,7 hPa 0,0 l/m 0,27 h 0,00 h 169 W/m 18,9 km/h (3 Bft) 96,54 %
07.11.2021 13:00 11,6 C 11,9 C 8,3 C 78 % 1016,4 hPa 0,0 l/m 0,27 h 0,00 h 180 W/m 17,0 km/h (3 Bft) 98,38 %
07.11.2021 14:00 12,0 C 13,0 C 8,5 C 75 % 1016,1 hPa 0,0 l/m 0,93 h 0,00 h 254 W/m 20,3 km/h (4 Bft) 97,94 %
07.11.2021 15:00 11,3 C 10,9 C 7,6 C 76 % 1016,1 hPa 0,0 l/m 0,33 h 0,00 h 96 W/m 18,2 km/h (3 Bft) 97,51 %
07.11.2021 16:00 10,6 C 10,0 C 7,0 C 77 % 1016,6 hPa 0,0 l/m 0,00 h 0,00 h 19 W/m 20,3 km/h (4 Bft) 96,47 %
07.11.2021 17:00 9,9 C 9,2 C 6,2 C 81 % 1017,1 hPa 0,0 l/m 0,00 h 0,30 h 0 W/m 13,9 km/h (3 Bft) 96,65 %
07.11.2021 18:00 8,9 C 8,0 C 5,0 C 88 % 1017,9 hPa 0,2 l/m 0,00 h 0,30 h 0 W/m 11,0 km/h (2 Bft) 97,94 %
07.11.2021 19:00 8,4 C 7,5 C 4,7 C 90 % 1018,3 hPa 0,2 l/m 0,00 h 0,17 h 0 W/m 6,1 km/h (2 Bft) 96,93 %
07.11.2021 20:00 8,1 C 7,4 C 4,9 C 90 % 1018,5 hPa 0,0 l/m 0,00 h 0,00 h 0 W/m 8,8 km/h (2 Bft) 95,96 %
07.11.2021 21:00 7,8 C 6,9 C 4,6 C 91 % 1019,1 hPa 0,0 l/m 0,00 h 0,00 h 0 W/m 8,1 km/h (2 Bft) 98,22 %
07.11.2021 22:00 7,4 C 6,6 C 4,4 C 93 % 1019,5 hPa 0,0 l/m 0,00 h 0,00 h 0 W/m 7,1 km/h (2 Bft) 98,43 %
07.11.2021 23:00 6,8 C 5,9 C 3,9 C 93 % 1019,8 hPa 0,0 l/m 0,00 h 0,00 h 0 W/m 6,6 km/h (2 Bft) 97,30 %
Min-Datum _ 03.11.21 03.11.21 03.11.21 01.11.21 01.11.21 - - - - 01.11.21 06.11.21
_ Min-Zeit 03:22 00:32 00:24 13:30 04:12 - - - - 22:20 10:35
Minimum _ 3,6 C 2,8 C 3,4 C 68 % 999,3 hPa - - - - 0,0 km/h (0 Bft) 0,00 %
Max-Datum _ 01.11.21 01.11.21 01.11.21 03.11.21 06.11.21 03.11.21 06.11.21 03.11.21 01.11.21 01.11.21 01.11.21
_ Max-Zeit 13:30 10:28 12:02 10:56 08:32 14:10 09:30 13:06 13:10 13:02 00:00
Maximum _ 14,0 C 15,6 C 11,1 C 98 % 1029,4 hPa 1,2 l/m 0,08 h 0,08 h 544 W/m 70,8 km/h
S-SW (8 Bft)
100,00 %
Durchschnitt _ 8,0 C 7,5 C 6,8 C 92 % 1010,9 hPa #5,2 l/m #10:02 h #7:20 h 86 W/m 9,7 km/h (2 Bft) 97,23 %
© 2021 W. Hausmann